Time,TemperatureF,DewpointF,PressureIn,WindDirection,WindDirectionDegrees,WindSpeedMPH,WindSpeedGustMPH,Humidity,HourlyPrecipIn,Conditions,Clouds,dailyrainin,SoftwareType,DateUTC
2013-06-21 00:00:00,66.0,61.0,30.15,ENE,66,0.0,0.0,84,0.00,,CLR,0.00,VWS V14.00,2013-06-21 04:00:00,
2013-06-21 00:15:00,65.6,60.6,30.15,ENE,66,0.0,0.0,84,0.00,,CLR,0.00,VWS V14.00,2013-06-21 04:15:00,
2013-06-21 00:30:00,65.2,59.6,30.15,ENE,69,0.0,2.0,82,0.00,,CLR,0.00,VWS V14.00,2013-06-21 04:30:00,
2013-06-21 00:45:00,65.2,58.2,30.15,ENE,66,0.0,2.0,78,0.00,,CLR,0.00,VWS V14.00,2013-06-21 04:45:00,
2013-06-21 01:00:00,65.2,57.1,30.15,ENE,66,0.0,1.0,75,0.00,,CLR,0.00,VWS V14.00,2013-06-21 05:00:00,
2013-06-21 01:15:00,64.8,56.7,30.15,ENE,66,0.0,1.0,75,0.00,,CLR,0.00,VWS V14.00,2013-06-21 05:15:00,
2013-06-21 01:30:00,64.5,57.1,30.15,ENE,66,0.0,0.0,77,0.00,,CLR,0.00,VWS V14.00,2013-06-21 05:30:00,
2013-06-21 01:45:00,64.0,57.4,30.15,ENE,66,0.0,0.0,79,0.00,,CLR,0.00,VWS V14.00,2013-06-21 05:45:00,
2013-06-21 02:00:00,63.5,57.9,30.15,ENE,66,0.0,0.0,82,0.00,,CLR,0.00,VWS V14.00,2013-06-21 06:00:00,
2013-06-21 02:15:00,63.2,57.6,30.15,ENE,68,0.0,0.0,82,0.00,,CLR,0.00,VWS V14.00,2013-06-21 06:15:00,
2013-06-21 02:30:00,63.1,57.5,30.15,ENE,66,0.0,0.0,82,0.00,,CLR,0.00,VWS V14.00,2013-06-21 06:30:00,
2013-06-21 02:45:00,63.2,57.6,30.15,ENE,66,0.0,0.0,82,0.00,,CLR,0.00,VWS V14.00,2013-06-21 06:45:00,
2013-06-21 03:00:00,63.2,56.9,30.15,ENE,66,0.0,1.0,80,0.00,,BKN038,0.00,VWS V14.00,2013-06-21 07:00:00,
2013-06-21 03:15:00,63.5,56.5,30.15,ENE,66,0.0,1.0,78,0.00,,BKN038,0.00,VWS V14.00,2013-06-21 07:15:00,
2013-06-21 03:30:00,63.9,55.8,30.16,ENE,66,0.0,0.0,75,0.00,,BKN038,0.00,VWS V14.00,2013-06-21 07:30:00,
2013-06-21 03:45:00,64.0,55.6,30.15,ENE,66,0.0,0.0,74,0.00,,BKN038,0.00,VWS V14.00,2013-06-21 07:45:00,
2013-06-21 04:00:00,63.7,56.0,30.15,ENE,66,0.0,0.0,76,0.00,,FEW038,0.00,VWS V14.00,2013-06-21 08:00:00,
2013-06-21 04:15:00,63.1,55.8,30.16,ENE,66,0.0,0.0,77,0.00,,FEW038,0.00,VWS V14.00,2013-06-21 08:15:00,
2013-06-21 04:30:00,62.4,55.8,30.16,ENE,66,0.0,0.0,79,0.00,,FEW038,0.00,VWS V14.00,2013-06-21 08:30:00,
2013-06-21 04:45:00,62.0,55.8,30.17,ENE,66,0.0,0.0,80,0.00,,FEW038,0.00,VWS V14.00,2013-06-21 08:45:00,
2013-06-21 05:00:00,61.5,55.3,30.17,ENE,66,0.0,0.0,80,0.00,,SCT047,0.00,VWS V14.00,2013-06-21 09:00:00,
2013-06-21 05:15:00,61.0,55.5,30.17,ENE,66,0.0,0.0,82,0.00,,SCT047,0.00,VWS V14.00,2013-06-21 09:15:00,
2013-06-21 05:30:00,60.9,55.4,30.17,ENE,66,0.0,0.0,82,0.00,,SCT047,0.00,VWS V14.00,2013-06-21 09:30:00,
2013-06-21 05:45:00,60.9,56.0,30.18,ENE,66,0.0,0.0,84,0.00,,SCT047,0.00,VWS V14.00,2013-06-21 09:45:00,
2013-06-21 06:00:00,61.0,55.8,30.17,ENE,66,0.0,0.0,83,0.00,,SCT180,0.00,VWS V14.00,2013-06-21 10:00:00,
2013-06-21 06:15:00,61.5,55.6,30.18,ENE,66,0.0,1.0,81,0.00,,SCT180,0.00,VWS V14.00,2013-06-21 10:15:00,
2013-06-21 06:30:00,63.1,56.8,30.17,ENE,66,0.0,1.0,80,0.00,,SCT180,0.00,VWS V14.00,2013-06-21 10:30:00,
2013-06-21 06:45:00,65.2,56.7,30.18,ENE,58,0.0,2.0,74,0.00,,SCT180,0.00,VWS V14.00,2013-06-21 10:45:00,
2013-06-21 07:00:00,67.3,57.2,30.18,ENE,58,1.0,2.0,70,0.00,,FEW250,0.00,VWS V14.00,2013-06-21 11:00:00,
2013-06-21 07:15:00,68.8,57.4,30.18,ENE,58,0.0,3.0,67,0.00,,FEW250,0.00,VWS V14.00,2013-06-21 11:15:00,
2013-06-21 07:30:00,69.6,57.8,30.18,NE,56,0.0,3.0,66,0.00,,FEW250,0.00,VWS V14.00,2013-06-21 11:30:00,
2013-06-21 07:45:00,70.1,57.4,30.19,East,83,2.0,5.0,64,0.00,,FEW250,0.00,VWS V14.00,2013-06-21 11:45:00,
2013-06-21 08:00:00,70.4,57.2,30.20,ENE,73,1.0,5.0,63,0.00,,FEW250,0.00,VWS V14.00,2013-06-21 12:00:00,
2013-06-21 08:15:00,72.0,56.9,30.20,ENE,75,0.0,3.0,59,0.00,,FEW250,0.00,VWS V14.00,2013-06-21 12:15:00,
2013-06-21 08:30:00,72.5,57.4,30.20,ENE,68,1.0,3.0,59,0.00,,FEW250,0.00,VWS V14.00,2013-06-21 12:30:00,
2013-06-21 08:45:00,72.8,56.7,30.19,East,80,2.0,6.0,57,0.00,,FEW250,0.00,VWS V14.00,2013-06-21 12:45:00,
2013-06-21 09:00:00,73.0,56.9,30.19,ENE,73,0.0,6.0,57,0.00,,FEW250,0.00,VWS V14.00,2013-06-21 13:00:00,
2013-06-21 09:15:00,74.0,58.3,30.20,NE,55,1.0,5.0,58,0.00,,FEW250,0.00,VWS V14.00,2013-06-21 13:15:00,
2013-06-21 09:30:00,74.9,57.2,30.20,East,79,6.0,6.0,54,0.00,,FEW250,0.00,VWS V14.00,2013-06-21 13:30:00,
2013-06-21 09:45:00,75.6,57.8,30.19,East,99,1.0,7.0,54,0.00,,FEW250,0.00,VWS V14.00,2013-06-21 13:45:00,
2013-06-21 10:00:00,76.7,57.8,30.19,SE,133,1.0,4.0,52,0.00,,SCT250,0.00,VWS V14.00,2013-06-21 14:00:00,
2013-06-21 10:15:00,77.4,60.0,30.19,SE,126,1.0,5.0,55,0.00,,SCT250,0.00,VWS V14.00,2013-06-21 14:15:00,
2013-06-21 10:30:00,78.1,60.1,30.19,ENE,66,2.0,6.0,54,0.00,,SCT250,0.00,VWS V14.00,2013-06-21 14:30:00,
2013-06-21 10:45:00,77.6,57.0,30.18,WNW,301,5.0,8.0,49,0.00,,SCT250,0.00,VWS V14.00,2013-06-21 14:45:00,
2013-06-21 11:00:00,77.7,58.2,30.18,North,357,2.0,7.0,51,0.00,,SCT250,0.00,VWS V14.00,2013-06-21 15:00:00,
2013-06-21 11:15:00,78.8,59.2,30.18,ESE,104,1.0,7.0,51,0.00,,SCT250,0.00,VWS V14.00,2013-06-21 15:15:00,
2013-06-21 11:30:00,78.8,60.8,30.18,NNW,340,2.0,7.0,54,0.00,,SCT250,0.00,VWS V14.00,2013-06-21 15:30:00,
2013-06-21 11:45:00,79.6,60.4,30.18,ENE,73,2.0,6.0,52,0.00,,SCT250,0.00,VWS V14.00,2013-06-21 15:45:00,
2013-06-21 12:00:00,79.6,61.0,30.17,East,83,0.0,8.0,53,0.00,,FEW250,0.00,VWS V14.00,2013-06-21 16:00:00,
2013-06-21 12:45:00,80.3,60.5,30.18,East,97,0.0,5.0,51,0.00,,FEW250,0.00,VWS V14.00,2013-06-21 16:45:00,
2013-06-21 13:00:00,80.5,60.7,30.17,NNW,346,1.0,6.0,51,0.00,,FEW250,0.00,VWS V14.00,2013-06-21 17:00:00,
2013-06-21 13:15:00,81.2,63.0,30.17,East,96,3.0,6.0,54,0.00,,FEW250,0.00,VWS V14.00,2013-06-21 17:15:00,
2013-06-21 13:30:00,81.1,61.3,30.16,East,86,2.0,7.0,51,0.00,,FEW250,0.00,VWS V14.00,2013-06-21 17:30:00,
2013-06-21 13:45:00,80.9,62.2,30.16,SSE,148,1.0,8.0,53,0.00,,FEW250,0.00,VWS V14.00,2013-06-21 17:45:00,
2013-06-21 14:00:00,80.9,62.7,30.15,NNW,344,2.0,12.0,54,0.00,,FEW045,0.00,VWS V14.00,2013-06-21 18:00:00,
2013-06-21 14:15:00,81.2,59.7,30.15,ESE,119,1.0,8.0,48,0.00,,FEW045,0.00,VWS V14.00,2013-06-21 18:15:00,
2013-06-21 14:30:00,80.9,59.4,30.15,ENE,78,0.0,7.0,48,0.00,,FEW045,0.00,VWS V14.00,2013-06-21 18:30:00,
2013-06-21 14:45:00,81.4,59.3,30.15,SE,130,1.0,4.0,47,0.00,,FEW045,0.00,VWS V14.00,2013-06-21 18:45:00,
2013-06-21 15:00:00,80.9,59.4,30.15,SE,126,4.0,7.0,48,0.00,,FEW045,0.00,VWS V14.00,2013-06-21 19:00:00,
2013-06-21 15:15:00,81.1,61.3,30.14,NW,320,1.0,4.0,51,0.00,,FEW045,0.00,VWS V14.00,2013-06-21 19:15:00,
2013-06-21 15:30:00,81.1,59.0,30.13,NNW,343,3.0,7.0,47,0.00,,FEW045,0.00,VWS V14.00,2013-06-21 19:30:00,
2013-06-21 16:00:00,81.4,59.3,30.14,East,86,0.0,0.0,47,0.00,,FEW045,0.00,VWS V14.00,2013-06-21 20:00:00,
2013-06-21 16:15:00,81.4,59.3,30.15,East,86,0.0,0.0,47,0.00,,FEW045,0.00,VWS V14.00,2013-06-21 20:15:00,
2013-06-21 16:30:00,81.4,59.3,30.13,East,85,1.0,5.0,47,0.00,,FEW045,0.00,VWS V14.00,2013-06-21 20:30:00,
2013-06-21 16:45:00,81.1,57.2,30.13,ESE,104,6.0,7.0,44,0.00,,FEW045,0.00,VWS V14.00,2013-06-21 20:45:00,
2013-06-21 17:00:00,80.9,57.6,30.12,North,350,0.0,7.0,45,0.00,,FEW045,0.00,VWS V14.00,2013-06-21 21:00:00,
2013-06-21 17:15:00,80.7,59.2,30.12,North,7,0.0,3.0,48,0.00,,FEW045,0.00,VWS V14.00,2013-06-21 21:15:00,
2013-06-21 17:30:00,79.9,58.5,30.12,East,83,1.0,7.0,48,0.00,,FEW045,0.00,VWS V14.00,2013-06-21 21:30:00,
2013-06-21 17:45:00,79.6,55.2,30.12,East,99,1.0,7.0,43,0.00,,FEW045,0.00,VWS V14.00,2013-06-21 21:45:00,
2013-06-21 18:00:00,79.4,56.2,30.12,SSE,147,4.0,6.0,45,0.00,,FEW045,0.00,VWS V14.00,2013-06-21 22:00:00,
2013-06-21 18:15:00,78.5,56.6,30.12,ENE,76,0.0,6.0,47,0.00,,FEW045,0.00,VWS V14.00,2013-06-21 22:15:00,
2013-06-21 18:30:00,77.4,57.3,30.12,ENE,78,0.0,5.0,50,0.00,,FEW045,0.00,VWS V14.00,2013-06-21 22:30:00,
2013-06-21 18:45:00,76.3,56.3,30.12,East,79,0.0,5.0,50,0.00,,FEW045,0.00,VWS V14.00,2013-06-21 22:45:00,
2013-06-21 19:00:00,75.4,57.6,30.12,ENE,78,0.0,3.0,54,0.00,,FEW045,0.00,VWS V14.00,2013-06-21 23:00:00,
2013-06-21 19:15:00,74.6,56.4,30.12,ENE,78,0.0,3.0,53,0.00,,FEW045,0.00,VWS V14.00,2013-06-21 23:15:00,
2013-06-21 19:30:00,73.5,55.9,30.12,ENE,76,0.0,1.0,54,0.00,,FEW045,0.00,VWS V14.00,2013-06-21 23:30:00,
2013-06-21 19:45:00,72.3,55.2,30.12,ENE,78,0.0,1.0,55,0.00,,FEW045,0.00,VWS V14.00,2013-06-21 23:45:00,
2013-06-21 20:00:00,71.1,56.1,30.12,ENE,78,0.0,0.0,59,0.00,,CLR,0.00,VWS V14.00,2013-06-22 00:00:00,
2013-06-21 20:15:00,70.1,55.6,30.12,ENE,78,0.0,0.0,60,0.00,,CLR,0.00,VWS V14.00,2013-06-22 00:15:00,
2013-06-21 20:30:00,69.3,55.3,30.12,ENE,78,0.0,0.0,61,0.00,,CLR,0.00,VWS V14.00,2013-06-22 00:30:00,
2013-06-21 20:45:00,68.3,55.2,30.13,ENE,78,0.0,0.0,63,0.00,,CLR,0.00,VWS V14.00,2013-06-22 00:45:00,
2013-06-21 21:00:00,67.6,55.8,30.14,East,79,0.0,0.0,66,0.00,,CLR,0.00,VWS V14.00,2013-06-22 01:00:00,
2013-06-21 21:15:00,66.9,55.6,30.14,ENE,76,0.0,0.0,67,0.00,,CLR,0.00,VWS V14.00,2013-06-22 01:15:00,
2013-06-21 21:30:00,66.4,55.9,30.14,East,79,0.0,0.0,69,0.00,,CLR,0.00,VWS V14.00,2013-06-22 01:30:00,
2013-06-21 21:45:00,66.0,56.0,30.14,ENE,76,0.0,0.0,70,0.00,,CLR,0.00,VWS V14.00,2013-06-22 01:45:00,
2013-06-21 22:00:00,65.5,55.9,30.14,ENE,76,0.0,0.0,71,0.00,,CLR,0.00,VWS V14.00,2013-06-22 02:00:00,
2013-06-21 22:15:00,65.0,56.5,30.14,ENE,76,0.0,0.0,74,0.00,,CLR,0.00,VWS V14.00,2013-06-22 02:15:00,
2013-06-21 22:30:00,64.8,57.1,30.14,ENE,75,0.0,0.0,76,0.00,,CLR,0.00,VWS V14.00,2013-06-22 02:30:00,
2013-06-21 22:45:00,64.7,57.0,30.14,ENE,75,0.0,0.0,76,0.00,,CLR,0.00,VWS V14.00,2013-06-22 02:45:00,
2013-06-21 23:00:00,64.5,57.5,30.14,ENE,75,0.0,0.0,78,0.00,,CLR,0.00,VWS V14.00,2013-06-22 03:00:00,
2013-06-21 23:15:00,64.5,57.5,30.14,ENE,75,0.0,0.0,78,0.00,,CLR,0.00,VWS V14.00,2013-06-22 03:15:00,
2013-06-21 23:30:00,64.2,57.6,30.14,ENE,75,0.0,0.0,79,0.00,,CLR,0.00,VWS V14.00,2013-06-22 03:30:00,
2013-06-21 23:45:00,64.0,57.4,30.13,ENE,76,0.0,0.0,79,0.00,,CLR,0.00,VWS V14.00,2013-06-22 03:45:00,